Time;durP1;ratioP1;P1;durP2;ratioP2;P2;SDS_P1;SDS_P2;PMS_P1;PMS_P2;Temp;Humidity;BMP_temperature;BMP_pressure;BME280_temperature;BME280_humidity;BME280_pressure;Samples;Min_cycle;Max_cycle;Signal;HPM_P1;HPM_P2
2022/11/17 00:00:48;;;;;;;9.47;2.50;;;10.50;19.80;;;;;;5088959;28;20384;-89
2022/11/17 00:03:18;;;;;;;3.00;2.43;;;10.50;17.70;;;;;;5085849;28;20417;-90
2022/11/17 00:06:27;;;;;;;14.80;2.77;;;10.60;15.80;;;;;;5093300;28;20529;-90
2022/11/17 00:08:53;;;;;;;9.83;2.97;;;10.50;16.50;;;;;;5083383;28;20455;-91
2022/11/17 00:35:19;;;;;;;13.63;2.60;;;10.60;8.50;;;;;;5074570;28;20385;-90
2022/11/17 00:43:55;;;;;;;6.23;2.43;;;10.60;6.70;;;;;;5074487;28;21012;-90
2022/11/17 00:46:21;;;;;;;10.50;2.53;;;10.60;5.90;;;;;;5077709;28;20427;-90
2022/11/17 00:58:53;;;;;;;5.40;2.30;;;10.60;6.90;;;;;;5093902;28;20426;-86
2022/11/17 01:04:41;;;;;;;7.23;2.33;;;10.50;4.90;;;;;;5082440;28;20377;-86
2022/11/17 01:13:54;;;;;;;3.37;2.03;;;10.50;7.10;;;;;;5080488;28;20857;-86
2022/11/17 01:16:43;;;;;;;7.63;2.40;;;10.40;8.10;;;;;;5081666;28;20429;-86
2022/11/17 01:39:23;;;;;;;11.47;2.30;;;10.60;6.40;;;;;;5073982;28;20392;-90
2022/11/17 01:45:31;;;;;;;8.17;2.17;;;10.60;5.90;;;;;;5073673;28;20455;-90
2022/11/17 01:55:08;;;;;;;3.70;2.27;;;10.60;5.40;;;;;;5077326;28;20532;-89
2022/11/17 01:58:04;;;;;;;5.70;2.10;;;10.60;4.90;;;;;;5076334;28;20414;-89
2022/11/17 02:00:31;;;;;;;4.00;1.80;;;10.60;5.80;;;;;;5077900;28;20421;-90
2022/11/17 02:03:08;;;;;;;11.17;2.03;;;10.70;5.10;;;;;;5076417;28;20413;-90
2022/11/17 02:06:28;;;;;;;5.53;2.37;;;10.60;5.80;;;;;;5076385;28;20459;-90
2022/11/17 02:08:55;;;;;;;3.23;1.93;;;10.60;3.50;;;;;;5085030;28;20485;-86
2022/11/17 02:12:07;;;;;;;14.50;2.70;;;10.60;3.10;;;;;;5078376;28;20425;-86
2022/11/17 02:15:19;;;;;;;2.50;2.23;;;10.60;3.90;;;;;;5092684;28;20425;-86
2022/11/17 02:21:57;;;;;;;13.63;2.10;;;10.60;2.50;;;;;;5082200;28;20400;-87
2022/11/17 02:28:15;;;;;;;4.70;2.43;;;10.60;3.00;;;;;;5014905;28;20411;-86
2022/11/17 02:37:32;;;;;;;7.60;2.20;;;10.60;4.60;;;;;;5012478;28;20399;-89
2022/11/17 02:46:38;;;;;;;8.33;2.60;;;10.70;6.10;;;;;;5015364;28;20435;-90
2022/11/17 02:52:27;;;;;;;6.90;2.27;;;10.70;6.40;;;;;;5000856;28;20478;-90
2022/11/17 02:58:14;;;;;;;11.53;2.43;;;10.70;6.10;;;;;;5008502;28;20463;-90
2022/11/17 03:01:07;;;;;;;2.20;2.00;;;10.70;4.80;;;;;;5073667;28;20448;-90
2022/11/17 03:17:34;;;;;;;5.97;2.13;;;10.70;7.70;;;;;;5077078;28;20456;-87
2022/11/17 03:23:40;;;;;;;9.30;2.43;;;10.70;5.60;;;;;;5090685;28;20432;-87
2022/11/17 03:26:12;;;;;;;14.37;2.40;;;10.70;6.40;;;;;;5085407;28;20428;-86
2022/11/17 03:39:14;;;;;;;5.13;2.40;;;10.70;9.50;;;;;;5082642;28;20395;-86
2022/11/17 03:42:14;;;;;;;4.57;2.47;;;10.50;9.90;;;;;;5082771;28;20431;-86
2022/11/17 03:45:11;;;;;;;10.60;2.57;;;10.60;10.10;;;;;;5085118;28;20464;-86
2022/11/17 03:47:37;;;;;;;11.30;3.40;;;10.60;9.80;;;;;;5089132;28;20433;-86
2022/11/17 03:50:43;;;;;;;5.67;2.57;;;10.50;11.70;;;;;;5087612;28;20469;-86
2022/11/17 03:53:20;;;;;;;4.00;2.07;;;10.60;12.40;;;;;;5082370;28;20508;-86
2022/11/17 03:59:24;;;;;;;3.33;2.10;;;10.60;9.80;;;;;;5075182;28;20409;-86
2022/11/17 04:02:37;;;;;;;6.10;1.90;;;10.60;10.00;;;;;;5077536;28;20485;-86
2022/11/17 04:08:28;;;;;;;7.60;2.40;;;10.60;12.10;;;;;;5089007;28;20853;-89
2022/11/17 04:21:25;;;;;;;2.87;1.80;;;10.60;11.40;;;;;;5088726;28;20476;-89
2022/11/17 04:24:13;;;;;;;2.40;2.03;;;10.60;9.90;;;;;;5088339;28;20892;-86
2022/11/17 04:30:43;;;;;;;5.70;2.17;;;10.60;11.30;;;;;;5081399;28;20423;-86
2022/11/17 04:37:16;;;;;;;8.33;2.10;;;10.60;15.50;;;;;;5084061;28;20480;-85
2022/11/17 04:46:27;;;;;;;9.40;2.03;;;10.80;13.90;;;;;;5074331;28;20384;-89
2022/11/17 04:49:07;;;;;;;5.73;2.30;;;10.80;12.90;;;;;;5075430;28;20437;-88
2022/11/17 04:58:49;;;;;;;4.07;2.20;;;10.90;11.00;;;;;;5089587;28;20558;-86
2022/11/17 05:01:26;;;;;;;6.20;2.17;;;10.90;11.20;;;;;;5076897;28;20421;-86
2022/11/17 05:18:01;;;;;;;8.27;2.03;;;11.00;8.60;;;;;;5088061;28;20409;-89
2022/11/17 05:20:37;;;;;;;4.50;2.43;;;10.90;8.70;;;;;;5080542;28;20424;-89
2022/11/17 05:23:55;;;;;;;4.27;2.40;;;10.80;10.00;;;;;;5077215;28;20508;-87
2022/11/17 05:26:34;;;;;;;6.33;2.50;;;10.80;12.40;;;;;;5084299;28;20427;-86
2022/11/17 05:35:43;;;;;;;3.27;1.37;;;10.70;18.60;;;;;;5100057;28;20471;-86
2022/11/17 05:38:37;;;;;;;2.67;1.23;;;10.80;23.90;;;;;;5076479;28;20421;-89
2022/11/17 05:44:25;;;;;;;6.30;1.67;;;10.80;27.10;;;;;;5077815;28;20388;-90
2022/11/17 05:47:07;;;;;;;6.23;1.20;;;10.80;28.80;;;;;;5090181;28;20496;-91
2022/11/17 05:49:33;;;;;;;1.60;1.10;;;10.90;37.10;;;;;;5085591;28;20293;-91
2022/11/17 05:55:37;;;;;;;1.43;1.07;;;11.00;32.50;;;;;;5077141;28;20241;-90
2022/11/17 06:01:26;;;;;;;4.23;1.67;;;11.10;26.00;;;;;;5077333;28;20770;-90
2022/11/17 06:04:03;;;;;;;3.20;1.20;;;11.20;24.40;;;;;;5091784;28;20417;-90
2022/11/17 06:06:29;;;;;;;6.23;1.43;;;11.20;24.20;;;;;;5085759;28;20473;-82
2022/11/17 06:12:16;;;;;;;1.83;1.67;;;11.20;23.50;;;;;;5076321;28;20533;-84
2022/11/17 06:14:42;;;;;;;2.70;1.50;;;11.20;23.60;;;;;;5075109;28;20979;-83
2022/11/17 06:17:55;;;;;;;4.37;1.80;;;11.10;21.90;;;;;;5081078;28;20181;-83
2022/11/17 06:23:44;;;;;;;1.40;1.30;;;11.20;21.70;;;;;;5089753;28;20438;-81
2022/11/17 06:26:38;;;;;;;4.33;1.13;;;11.10;21.50;;;;;;5080786;28;20449;-79
2022/11/17 06:29:19;;;;;;;3.43;1.57;;;11.20;22.10;;;;;;5086688;28;20764;-79
2022/11/17 06:31:50;;;;;;;1.60;1.50;;;11.20;22.50;;;;;;5076572;28;20401;-79
2022/11/17 06:34:15;;;;;;;8.93;1.87;;;11.20;21.70;;;;;;5076981;28;20413;-78
2022/11/17 06:37:01;;;;;;;2.87;1.60;;;11.20;22.80;;;;;;5082421;28;20409;-78
2022/11/17 06:39:37;;;;;;;8.63;2.80;;;11.20;21.90;;;;;;5076377;28;20190;-81
2022/11/17 06:42:13;;;;;;;5.10;2.30;;;11.20;19.80;;;;;;5081767;28;20841;-81
2022/11/17 06:45:13;;;;;;;9.67;2.40;;;11.20;18.20;;;;;;5079145;28;20760;-81
2022/11/17 06:47:52;;;;;;;4.00;1.50;;;11.20;18.70;;;;;;5080130;28;20432;-81
2022/11/17 06:51:07;;;;;;;9.10;2.73;;;11.10;18.80;;;;;;5088641;28;20433;-81
2022/11/17 06:54:08;;;;;;;8.00;2.37;;;11.20;19.90;;;;;;5087495;28;20465;-81
2022/11/17 06:56:37;;;;;;;3.90;2.03;;;11.20;17.40;;;;;;5079616;28;20455;-77
2022/11/17 06:59:03;;;;;;;4.00;1.40;;;11.10;18.50;;;;;;5087440;28;20405;-77
2022/11/17 07:01:29;;;;;;;2.37;1.40;;;11.10;20.60;;;;;;5087272;28;20790;-78
2022/11/17 07:03:55;;;;;;;2.57;1.20;;;11.10;24.80;;;;;;5075592;28;20413;-78
2022/11/17 07:06:21;;;;;;;1.40;1.30;;;11.10;27.40;;;;;;5085226;28;20424;-77
2022/11/17 07:08:52;;;;;;;2.60;1.30;;;11.20;26.80;;;;;;5074330;28;20438;-77
2022/11/17 07:11:35;;;;;;;3.13;1.50;;;11.20;26.70;;;;;;5088242;28;20188;-86
2022/11/17 07:14:00;;;;;;;1.40;1.30;;;11.10;24.70;;;;;;5087966;28;20456;-71
2022/11/17 07:16:26;;;;;;;3.37;1.00;;;11.20;26.60;;;;;;5076413;28;20478;-70
2022/11/17 07:18:52;;;;;;;5.27;1.50;;;11.10;23.90;;;;;;5082206;28;20710;-71
2022/11/17 07:21:18;;;;;;;3.67;1.50;;;11.10;23.70;;;;;;5075341;28;20598;-71
2022/11/17 07:23:44;;;;;;;2.60;0.90;;;11.10;22.30;;;;;;5071654;28;20512;-71
2022/11/17 07:26:11;;;;;;;4.70;1.10;;;11.10;19.50;;;;;;5077020;28;20187;-67
2022/11/17 07:28:36;;;;;;;5.13;1.00;;;11.10;19.00;;;;;;5065130;28;20516;-67
2022/11/17 07:31:04;;;;;;;1.70;0.97;;;11.00;16.40;;;;;;5076767;28;20859;-67
2022/11/17 07:33:31;;;;;;;1.23;0.80;;;11.10;15.30;;;;;;5085377;28;20222;-67
2022/11/17 07:36:08;;;;;;;2.40;0.80;;;11.20;14.80;;;;;;5084240;28;20409;-67
2022/11/17 07:38:34;;;;;;;2.73;1.00;;;11.20;13.60;;;;;;5081682;28;20460;-67
2022/11/17 07:41:01;;;;;;;5.50;0.90;;;11.20;13.60;;;;;;5084072;28;20884;-71
2022/11/17 07:43:27;;;;;;;1.27;0.80;;;11.30;12.50;;;;;;5075231;28;20462;-71
2022/11/17 07:45:53;;;;;;;5.70;0.90;;;11.40;10.90;;;;;;5074104;28;20428;-71
2022/11/17 07:48:19;;;;;;;2.90;1.10;;;11.50;7.70;;;;;;5074536;28;20444;-71
2022/11/17 07:50:45;;;;;;;6.33;1.17;;;11.70;3.70;;;;;;5079776;28;20424;-71
2022/11/17 07:53:12;;;;;;;3.57;0.90;;;11.80;1.00;;;;;;5074074;28;20666;-71
2022/11/17 07:55:38;;;;;;;5.97;1.20;;;11.80;1.00;;;;;;5088105;28;20178;-71
2022/11/17 07:58:04;;;;;;;2.87;1.43;;;11.90;1.00;;;;;;5082011;28;20416;-71
2022/11/17 08:00:32;;;;;;;0.80;0.80;;;11.90;1.00;;;;;;5074118;28;20459;-71
2022/11/17 08:03:03;;;;;;;3.70;1.10;;;12.10;1.00;;;;;;5082676;28;20440;-71
2022/11/17 08:05:31;;;;;;;2.00;1.00;;;12.20;1.00;;;;;;5076297;28;20840;-71
2022/11/17 08:07:58;;;;;;;3.20;1.00;;;12.30;1.00;;;;;;5077226;28;20560;-71
2022/11/17 08:10:30;;;;;;;4.47;1.07;;;12.40;1.00;;;;;;5089345;28;20420;-71
2022/11/17 08:12:59;;;;;;;2.27;0.87;;;12.60;1.00;;;;;;5083949;28;20522;-71
2022/11/17 08:15:29;;;;;;;3.57;1.00;;;12.80;1.00;;;;;;5073760;28;20413;-71
2022/11/17 08:17:56;;;;;;;4.40;1.10;;;12.90;1.00;;;;;;5074099;28;20391;-71
2022/11/17 08:20:23;;;;;;;1.90;0.80;;;13.00;1.00;;;;;;5072273;28;20821;-71
2022/11/17 08:22:50;;;;;;;3.97;1.00;;;13.00;1.00;;;;;;5077915;28;20450;-77
2022/11/17 08:25:17;;;;;;;2.33;0.87;;;13.10;1.00;;;;;;5089761;28;20429;-71
2022/11/17 08:27:43;;;;;;;2.30;1.30;;;13.20;1.00;;;;;;5092228;28;20395;-71
2022/11/17 08:30:09;;;;;;;1.87;0.80;;;13.20;1.00;;;;;;5087168;28;20446;-68
2022/11/17 08:32:35;;;;;;;5.27;1.10;;;13.20;1.00;;;;;;5074384;28;20198;-68
2022/11/17 08:35:04;;;;;;;5.03;1.10;;;13.10;1.00;;;;;;5073291;28;20448;-68
2022/11/17 08:37:30;;;;;;;2.37;1.00;;;13.10;1.00;;;;;;5073448;28;20750;-68
2022/11/17 08:40:01;;;;;;;5.43;0.93;;;13.10;1.00;;;;;;5075490;28;20413;-68
2022/11/17 08:42:27;;;;;;;4.87;1.20;;;13.00;1.00;;;;;;5070019;28;20653;-71
2022/11/17 08:44:53;;;;;;;3.43;0.97;;;13.00;1.00;;;;;;5076804;28;20429;-71
2022/11/17 08:47:18;;;;;;;7.27;1.10;;;13.00;1.00;;;;;;5077748;28;20642;-71
2022/11/17 08:49:44;;;;;;;3.67;1.00;;;13.10;1.00;;;;;;5084908;28;20198;-70
2022/11/17 08:52:10;;;;;;;2.10;0.90;;;13.00;1.00;;;;;;5072071;28;20596;-71
2022/11/17 08:54:35;;;;;;;2.30;1.10;;;13.10;1.00;;;;;;5073350;28;20186;-71
2022/11/17 08:57:01;;;;;;;3.27;0.90;;;13.10;1.00;;;;;;5078197;28;20626;-70
2022/11/17 08:59:26;;;;;;;1.30;1.20;;;13.20;1.00;;;;;;5073141;28;20658;-71
2022/11/17 09:01:52;;;;;;;3.63;1.57;;;13.10;1.00;;;;;;5074676;28;20660;-71
2022/11/17 09:04:18;;;;;;;3.43;1.20;;;13.10;1.00;;;;;;5073295;28;20573;-71
2022/11/17 09:06:44;;;;;;;4.60;1.27;;;13.10;1.00;;;;;;5074893;28;20167;-71
2022/11/17 09:09:10;;;;;;;2.60;0.90;;;13.20;1.00;;;;;;5086810;28;20416;-70
2022/11/17 09:11:35;;;;;;;2.97;0.77;;;13.30;1.00;;;;;;5077408;28;20183;-67
2022/11/17 09:14:01;;;;;;;1.87;1.07;;;13.30;1.00;;;;;;5078585;28;20222;-67
2022/11/17 09:16:27;;;;;;;2.80;1.07;;;13.30;1.00;;;;;;5071173;28;20224;-67
2022/11/17 09:18:58;;;;;;;5.07;1.30;;;13.30;1.00;;;;;;5078492;28;20182;-67
2022/11/17 09:21:25;;;;;;;3.70;1.00;;;13.30;1.00;;;;;;5073111;28;20626;-67
2022/11/17 09:23:53;;;;;;;4.50;1.30;;;13.40;1.00;;;;;;5074014;28;20433;-67
2022/11/17 09:26:18;;;;;;;4.93;1.00;;;13.50;1.00;;;;;;5082452;28;20440;-71
2022/11/17 09:28:44;;;;;;;7.30;1.35;;;13.50;1.00;;;;;;5076762;28;20467;-71
2022/11/17 09:31:13;;;;;;;5.90;1.27;;;13.80;1.00;;;;;;5075268;28;20202;-71
2022/11/17 09:33:39;;;;;;;3.93;0.90;;;14.00;1.00;;;;;;5080093;28;20460;-71
2022/11/17 09:36:08;;;;;;;5.70;1.83;;;14.00;1.00;;;;;;5083023;28;20437;-71
2022/11/17 09:38:38;;;;;;;2.83;0.90;;;13.90;1.00;;;;;;5073681;28;20920;-71
2022/11/17 09:41:26;;;;;;;3.30;0.90;;;14.00;1.00;;;;;;5075623;28;20417;-67
2022/11/17 09:43:55;;;;;;;4.93;1.20;;;14.00;1.00;;;;;;5078494;28;20425;-67
2022/11/17 09:46:54;;;;;;;6.70;1.40;;;14.10;1.00;;;;;;5077969;28;20464;-67
2022/11/17 09:49:32;;;;;;;0.90;0.70;;;14.00;1.00;;;;;;5010712;28;20496;-67
2022/11/17 09:52:08;;;;;;;2.43;0.97;;;14.00;1.00;;;;;;5011207;28;20439;-67
2022/11/17 09:54:52;;;;;;;7.03;1.50;;;14.10;1.00;;;;;;4999215;28;20828;-67
2022/11/17 09:57:41;;;;;;;3.50;1.00;;;14.00;1.00;;;;;;5008207;28;20508;-67
2022/11/17 10:00:18;;;;;;;2.40;0.90;;;14.10;1.00;;;;;;5010468;28;20431;-67
2022/11/17 10:02:44;;;;;;;2.10;0.90;;;14.20;1.00;;;;;;5006321;28;20781;-67
2022/11/17 10:05:14;;;;;;;4.23;1.10;;;14.30;1.00;;;;;;5002180;28;20547;-67
2022/11/17 10:07:46;;;;;;;9.87;1.60;;;14.20;1.00;;;;;;5009557;28;20494;-67
2022/11/17 10:10:18;;;;;;;4.63;1.40;;;14.10;1.00;;;;;;5001417;28;20462;-67
2022/11/17 10:12:54;;;;;;;4.70;1.10;;;14.10;1.00;;;;;;5010926;28;20550;-67
2022/11/17 10:15:28;;;;;;;4.80;1.17;;;13.90;1.00;;;;;;5007918;28;20427;-67
2022/11/17 10:17:54;;;;;;;2.10;1.00;;;14.00;1.00;;;;;;5013168;28;20406;-67
2022/11/17 10:20:19;;;;;;;5.20;1.30;;;13.90;1.00;;;;;;5013695;28;22058;-67
2022/11/17 10:22:47;;;;;;;5.07;1.13;;;13.80;1.00;;;;;;4990172;28;20178;-67
2022/11/17 10:25:43;;;;;;;10.93;1.60;;;13.70;1.00;;;;;;5027865;28;20195;-67
2022/11/17 10:28:23;;;;;;;2.20;1.00;;;13.70;1.00;;;;;;5000620;28;20433;-67
2022/11/17 10:30:59;;;;;;;3.80;0.90;;;13.60;1.00;;;;;;4994306;28;20875;-67
2022/11/17 10:33:46;;;;;;;5.43;1.20;;;13.60;1.00;;;;;;4996425;28;20542;-67
2022/11/17 10:36:29;;;;;;;3.37;1.30;;;13.80;1.00;;;;;;4999533;28;20503;-67
2022/11/17 10:38:57;;;;;;;4.63;1.20;;;13.70;1.00;;;;;;5005069;28;20990;-67
2022/11/17 10:41:36;;;;;;;6.20;1.20;;;13.80;1.00;;;;;;5010793;28;20918;-67
2022/11/17 10:44:05;;;;;;;3.10;0.97;;;13.80;1.00;;;;;;4996226;28;20448;-67
2022/11/17 10:46:31;;;;;;;6.77;1.40;;;13.90;1.00;;;;;;5007432;28;20915;-67
2022/11/17 10:48:59;;;;;;;5.43;1.23;;;13.90;1.00;;;;;;5006981;28;20547;-67
2022/11/17 10:51:32;;;;;;;3.67;1.40;;;13.90;1.00;;;;;;4993826;28;20758;-67
2022/11/17 10:54:16;;;;;;;5.97;1.07;;;14.20;1.00;;;;;;4999140;28;20484;-67
2022/11/17 10:56:45;;;;;;;7.73;1.80;;;14.40;1.00;;;;;;4993549;28;20433;-67
2022/11/17 10:59:15;;;;;;;5.17;1.20;;;14.30;1.00;;;;;;4996895;28;20435;-67
2022/11/17 11:01:43;;;;;;;6.60;1.63;;;14.40;1.00;;;;;;4997697;28;20448;-67
2022/11/17 11:04:33;;;;;;;5.30;1.47;;;14.60;1.00;;;;;;5031490;28;20582;-67
2022/11/17 11:07:08;;;;;;;6.80;1.47;;;14.60;1.00;;;;;;5081330;28;20512;-67
2022/11/17 11:09:43;;;;;;;5.37;1.23;;;14.70;1.00;;;;;;5090556;28;20427;-67
2022/11/17 11:12:18;;;;;;;6.00;1.63;;;14.60;1.00;;;;;;5090708;28;20424;-70
2022/11/17 11:14:52;;;;;;;7.10;1.20;;;14.70;1.00;;;;;;5092860;28;20464;-71
2022/11/17 11:17:19;;;;;;;10.20;1.10;;;14.70;1.00;;;;;;5075718;28;20471;-71
2022/11/17 11:19:52;;;;;;;2.57;0.97;;;14.70;1.00;;;;;;5075127;28;20420;-71
2022/11/17 11:22:41;;;;;;;7.40;1.23;;;14.40;1.00;;;;;;5078467;28;20432;-70
2022/11/17 11:25:44;;;;;;;8.43;1.37;;;14.00;1.00;;;;;;5074865;28;20437;-71
2022/11/17 11:28:35;;;;;;;7.17;1.23;;;13.80;1.00;;;;;;5075070;28;20431;-70
2022/11/17 11:31:09;;;;;;;5.50;0.97;;;13.80;1.00;;;;;;5077463;28;20464;-71
2022/11/17 11:33:52;;;;;;;7.50;1.37;;;13.80;1.00;;;;;;5077517;28;20944;-71
2022/11/17 11:36:28;;;;;;;10.23;1.13;;;13.70;1.00;;;;;;5075554;28;20972;-71
2022/11/17 11:39:27;;;;;;;6.57;1.93;;;13.80;1.00;;;;;;5074588;28;20420;-71
2022/11/17 11:42:22;;;;;;;6.57;1.60;;;13.90;1.00;;;;;;5078655;28;20429;-70
2022/11/17 11:45:29;;;;;;;4.27;1.30;;;14.10;1.00;;;;;;5021583;28;20423;-71
2022/11/17 11:48:07;;;;;;;7.13;1.20;;;14.10;1.00;;;;;;5032163;28;20480;-70
2022/11/17 11:50:41;;;;;;;3.57;1.30;;;14.00;1.00;;;;;;5029287;28;20907;-71
2022/11/17 11:53:23;;;;;;;8.27;1.13;;;14.10;1.00;;;;;;5019947;28;20954;-71
2022/11/17 11:56:05;;;;;;;3.50;0.83;;;14.00;1.00;;;;;;5020972;28;20495;-71
2022/11/17 11:58:31;;;;;;;1.40;1.00;;;14.00;1.00;;;;;;5027544;28;20446;-67
2022/11/17 12:01:17;;;;;;;5.03;1.30;;;14.10;1.00;;;;;;5029803;28;20442;-67
2022/11/17 12:03:57;;;;;;;5.80;1.03;;;14.10;1.00;;;;;;5031282;28;20176;-79
2022/11/17 12:06:56;;;;;;;4.60;1.07;;;14.20;1.00;;;;;;5008250;28;20596;-79
2022/11/17 12:09:39;;;;;;;6.40;1.47;;;14.20;1.00;;;;;;5019804;28;20495;-79
2022/11/17 12:12:14;;;;;;;6.20;1.10;;;14.50;1.00;;;;;;5024805;28;20437;-83
2022/11/17 12:15:16;;;;;;;6.77;1.10;;;14.80;1.00;;;;;;5031722;28;20465;-85
2022/11/17 12:17:58;;;;;;;5.53;1.77;;;15.00;1.00;;;;;;4969448;28;20429;-84
2022/11/17 12:20:34;;;;;;;3.63;1.30;;;15.30;1.00;;;;;;4965634;28;20430;-84
2022/11/17 12:23:44;;;;;;;6.80;1.50;;;15.30;1.00;;;;;;5031447;28;20913;-84
2022/11/17 12:26:32;;;;;;;8.20;1.10;;;15.20;1.00;;;;;;5012521;28;20424;-85
2022/11/17 12:33:14;;;;;;;2.83;1.50;;;14.80;1.00;;;;;;5030928;28;20488;-84
2022/11/17 12:36:15;;;;;;;3.37;1.17;;;15.00;1.00;;;;;;5031941;28;20450;-82
2022/11/17 12:39:20;;;;;;;4.20;1.50;;;14.90;1.00;;;;;;4978490;28;20459;-84
2022/11/17 12:41:48;;;;;;;3.90;1.20;;;14.70;1.00;;;;;;4992122;28;20412;-83
2022/11/17 12:44:40;;;;;;;3.43;0.73;;;14.50;1.00;;;;;;4982450;28;20429;-89
2022/11/17 12:47:34;;;;;;;2.63;0.87;;;14.70;1.00;;;;;;4899892;29;20411;-89
2022/11/17 12:50:22;;;;;;;4.27;1.00;;;14.90;1.00;;;;;;4907314;29;20449;-82
2022/11/17 12:56:34;;;;;;;3.97;1.03;;;14.70;1.00;;;;;;4915825;29;20785;-84
2022/11/17 12:59:43;;;;;;;2.60;0.70;;;14.70;1.00;;;;;;4915833;29;20975;-84
2022/11/17 13:02:44;;;;;;;5.20;0.93;;;14.60;1.00;;;;;;4915923;29;20471;-84
2022/11/17 13:05:32;;;;;;;1.13;0.83;;;14.60;1.00;;;;;;4915771;29;20471;-90
2022/11/17 13:08:35;;;;;;;6.13;0.90;;;14.60;1.00;;;;;;4918137;29;20476;-89
2022/11/17 13:11:33;;;;;;;2.63;0.87;;;14.40;1.00;;;;;;4909924;29;20435;-83
2022/11/17 13:14:33;;;;;;;1.93;0.80;;;14.50;1.00;;;;;;4888730;29;20460;-89
2022/11/17 13:17:38;;;;;;;2.90;0.70;;;14.50;1.00;;;;;;4954183;29;20792;-90
2022/11/17 13:20:44;;;;;;;5.80;1.00;;;14.30;1.00;;;;;;4938628;29;20430;-90
2022/11/17 13:23:25;;;;;;;2.30;0.90;;;14.20;1.00;;;;;;4963742;28;20438;-83
2022/11/17 13:26:22;;;;;;;1.30;0.83;;;13.90;1.00;;;;;;5011315;28;20420;-84
2022/11/17 13:32:21;;;;;;;5.57;1.00;;;13.90;1.00;;;;;;5011762;28;20418;-83
2022/11/17 13:34:55;;;;;;;4.00;0.90;;;13.90;1.00;;;;;;4994358;28;20427;-83
2022/11/17 13:37:58;;;;;;;9.23;1.50;;;14.00;1.00;;;;;;4996259;28;20946;-86
2022/11/17 13:40:52;;;;;;;3.53;0.70;;;13.80;1.00;;;;;;4995519;28;20450;-91
2022/11/17 13:43:22;;;;;;;8.80;1.17;;;13.70;1.00;;;;;;5010537;28;20493;-84
2022/11/17 13:45:49;;;;;;;3.33;0.80;;;13.40;1.00;;;;;;5077133;28;20531;-84
2022/11/17 13:48:37;;;;;;;3.47;1.00;;;13.30;1.00;;;;;;5078062;28;20448;-84
2022/11/17 13:51:23;;;;;;;1.33;0.70;;;13.40;1.00;;;;;;5082508;28;20421;-87
2022/11/17 13:54:11;;;;;;;1.47;0.70;;;13.30;1.00;;;;;;5076327;28;20453;-88
2022/11/17 13:57:04;;;;;;;1.03;0.80;;;13.10;1.00;;;;;;5085732;28;20836;-90
2022/11/17 14:03:33;;;;;;;1.53;0.87;;;13.20;1.00;;;;;;5081271;28;20491;-86
2022/11/17 14:06:12;;;;;;;7.03;0.80;;;13.20;1.00;;;;;;5083825;28;20477;-85
2022/11/17 14:12:21;;;;;;;1.73;0.53;;;13.40;1.00;;;;;;5079832;28;20428;-86
2022/11/17 14:15:24;;;;;;;2.00;0.90;;;13.20;1.00;;;;;;5084797;28;20466;-85
2022/11/17 14:18:00;;;;;;;4.90;0.93;;;13.20;1.00;;;;;;5079891;28;20459;-85
2022/11/17 14:23:47;;;;;;;6.73;0.90;;;13.20;1.00;;;;;;5079698;28;20396;-85
2022/11/17 14:36:39;;;;;;;3.73;0.80;;;13.00;1.00;;;;;;5076341;28;20388;-85
2022/11/17 14:39:33;;;;;;;1.73;0.80;;;12.90;1.00;;;;;;5080011;28;20769;-84
2022/11/17 14:42:15;;;;;;;4.37;1.20;;;12.90;1.00;;;;;;5077075;28;20421;-83
2022/11/17 14:44:51;;;;;;;2.43;0.90;;;12.90;1.00;;;;;;5076667;28;20397;-84
2022/11/17 14:50:39;;;;;;;3.83;0.87;;;13.00;1.00;;;;;;5095155;28;20454;-84
2022/11/17 14:56:26;;;;;;;5.40;1.53;;;13.00;1.00;;;;;;5081665;28;20174;-86
2022/11/17 14:59:45;;;;;;;4.30;1.03;;;13.00;1.00;;;;;;5087375;28;20422;-84
2022/11/17 15:02:15;;;;;;;4.20;1.00;;;13.00;1.00;;;;;;5078697;28;20178;-81
2022/11/17 15:04:45;;;;;;;16.20;1.10;;;13.10;1.00;;;;;;5076418;28;20995;-83
2022/11/17 15:07:27;;;;;;;6.00;0.90;;;13.10;1.00;;;;;;5087813;28;20412;-83
2022/11/17 15:10:05;;;;;;;4.60;1.20;;;13.10;1.00;;;;;;5076389;28;20433;-86
2022/11/17 15:12:39;;;;;;;6.10;0.90;;;13.00;1.00;;;;;;5076970;28;20485;-83
2022/11/17 15:15:09;;;;;;;6.60;1.10;;;12.80;1.00;;;;;;5094592;28;20420;-83
2022/11/17 15:21:01;;;;;;;3.93;0.90;;;12.80;1.00;;;;;;5075141;28;20412;-83
2022/11/17 15:23:26;;;;;;;7.10;1.03;;;12.70;1.00;;;;;;5073989;28;20413;-83
2022/11/17 15:29:16;;;;;;;8.53;1.27;;;12.70;1.00;;;;;;5073360;28;20213;-83
2022/11/17 15:32:20;;;;;;;4.80;0.90;;;12.70;1.00;;;;;;5073229;28;20540;-84
2022/11/17 15:44:50;;;;;;;4.37;0.93;;;12.40;1.00;;;;;;5083826;28;20450;-90
2022/11/17 15:47:27;;;;;;;5.90;1.10;;;12.30;1.00;;;;;;5057174;28;20417;-86
2022/11/17 15:49:57;;;;;;;5.67;1.23;;;12.10;1.00;;;;;;5055818;28;20649;-82
2022/11/17 15:59:45;;;;;;;1.83;0.80;;;11.90;1.00;;;;;;5092196;28;20419;-83
2022/11/17 16:02:15;;;;;;;7.53;1.13;;;11.80;1.00;;;;;;5086958;28;20433;-79
2022/11/17 16:04:57;;;;;;;4.30;0.90;;;11.70;1.00;;;;;;5084726;28;20879;-79
2022/11/17 16:07:33;;;;;;;2.60;1.00;;;11.70;1.00;;;;;;5075715;28;20888;-78
2022/11/17 16:10:15;;;;;;;3.80;0.90;;;11.60;1.00;;;;;;5083695;28;20934;-78
2022/11/17 16:12:48;;;;;;;2.90;1.10;;;11.50;1.00;;;;;;5079394;28;20525;-78
2022/11/17 16:15:15;;;;;;;3.63;1.00;;;11.50;1.00;;;;;;5080162;28;20471;-77
2022/11/17 16:21:09;;;;;;;3.43;1.10;;;11.50;1.00;;;;;;5082534;28;20830;-87
2022/11/17 16:27:39;;;;;;;1.87;0.90;;;11.10;1.00;;;;;;5089783;28;20423;-87
2022/11/17 16:30:33;;;;;;;4.60;0.97;;;11.00;1.00;;;;;;5088296;28;20424;-86
2022/11/17 16:33:09;;;;;;;4.80;1.43;;;11.00;1.00;;;;;;5073925;28;20455;-81
2022/11/17 16:35:40;;;;;;;6.50;1.00;;;11.00;1.00;;;;;;5080627;28;20903;-81
2022/11/17 16:38:16;;;;;;;5.97;0.77;;;11.00;1.00;;;;;;5082194;28;20912;-81
2022/11/17 16:41:00;;;;;;;4.00;0.87;;;11.10;1.00;;;;;;5082594;28;20510;-81
2022/11/17 16:43:27;;;;;;;1.90;0.83;;;11.00;1.00;;;;;;5090393;28;20841;-79
2022/11/17 16:45:53;;;;;;;3.27;0.77;;;11.10;1.00;;;;;;5082461;28;20497;-78
2022/11/17 16:48:19;;;;;;;4.77;1.53;;;11.00;1.00;;;;;;5087323;28;20500;-78
2022/11/17 16:50:45;;;;;;;4.33;1.00;;;10.90;1.00;;;;;;5073164;28;20248;-79
2022/11/17 16:53:15;;;;;;;2.53;0.80;;;10.90;1.00;;;;;;5087151;28;20237;-80
2022/11/17 16:55:41;;;;;;;2.83;0.77;;;10.90;1.00;;;;;;5083797;28;20417;-79
2022/11/17 16:58:51;;;;;;;5.00;0.87;;;10.90;1.00;;;;;;5079133;28;20444;-79
2022/11/17 17:01:18;;;;;;;4.43;0.70;;;10.90;1.00;;;;;;5084562;28;20190;-85
2022/11/17 17:03:44;;;;;;;4.83;1.00;;;10.90;1.00;;;;;;5094208;28;20976;-86
2022/11/17 17:06:29;;;;;;;3.30;1.00;;;10.80;1.00;;;;;;5094354;28;20421;-85
2022/11/17 17:09:21;;;;;;;2.20;0.80;;;10.90;1.00;;;;;;5082596;28;20269;-83
2022/11/17 17:15:09;;;;;;;5.57;0.97;;;10.90;1.00;;;;;;5081577;28;20423;-85
2022/11/17 17:18:15;;;;;;;4.50;0.70;;;10.90;1.00;;;;;;5087961;28;20864;-79
2022/11/17 17:21:12;;;;;;;2.60;1.17;;;10.80;1.00;;;;;;5075245;28;20174;-79
2022/11/17 17:23:51;;;;;;;1.03;0.80;;;10.80;1.00;;;;;;5096652;28;20398;-81
2022/11/17 17:26:21;;;;;;;1.33;0.70;;;10.90;1.00;;;;;;5078160;28;20437;-80
2022/11/17 17:29:04;;;;;;;8.07;1.00;;;10.70;1.00;;;;;;5077300;28;20484;-80
2022/11/17 17:32:15;;;;;;;2.20;1.00;;;10.80;1.00;;;;;;5084725;28;20408;-87
2022/11/17 17:38:03;;;;;;;1.10;0.70;;;10.60;1.00;;;;;;5086640;28;20416;-87
2022/11/17 17:40:51;;;;;;;3.63;0.67;;;10.50;1.00;;;;;;5077577;28;20409;-85
2022/11/17 17:46:39;;;;;;;6.33;0.80;;;10.30;1.00;;;;;;5087801;28;20471;-80
2022/11/17 17:49:17;;;;;;;1.13;0.80;;;10.10;1.00;;;;;;5089154;28;20432;-80
2022/11/17 17:52:04;;;;;;;1.63;0.93;;;10.00;1.00;;;;;;5081480;28;20699;-80
2022/11/17 17:55:03;;;;;;;4.90;1.27;;;10.00;1.00;;;;;;5084724;28;20465;-79
2022/11/17 17:57:29;;;;;;;4.43;0.77;;;10.00;1.00;;;;;;5086368;28;20417;-80
2022/11/17 17:59:57;;;;;;;2.67;1.10;;;9.90;1.00;;;;;;5076891;28;20742;-79
2022/11/17 18:05:45;;;;;;;3.67;0.80;;;9.80;1.00;;;;;;5096897;28;20466;-86
2022/11/17 18:08:11;;;;;;;4.27;1.03;;;9.80;1.00;;;;;;5094799;28;20435;-86
2022/11/17 18:13:59;;;;;;;4.30;0.97;;;9.80;3.30;;;;;;5093654;28;20467;-84
2022/11/17 18:16:33;;;;;;;3.53;0.90;;;9.80;5.60;;;;;;5087881;28;20899;-80
2022/11/17 18:19:21;;;;;;;2.90;0.90;;;9.90;7.40;;;;;;5076431;28;20447;-79
2022/11/17 18:22:03;;;;;;;6.03;1.20;;;10.00;7.60;;;;;;5089875;28;20477;-79
2022/11/17 18:24:45;;;;;;;5.53;1.23;;;9.90;8.00;;;;;;5085267;28;20407;-79
2022/11/17 18:27:11;;;;;;;2.40;1.00;;;10.00;8.10;;;;;;5082871;28;20875;-79
2022/11/17 18:29:57;;;;;;;3.33;1.00;;;9.90;9.20;;;;;;5092676;28;20499;-79
2022/11/17 18:32:27;;;;;;;4.83;1.20;;;9.90;11.70;;;;;;5082945;28;20182;-78
2022/11/17 18:35:27;;;;;;;3.43;1.57;;;10.00;10.80;;;;;;5090154;28;20421;-81
2022/11/17 18:37:57;;;;;;;2.20;1.20;;;10.00;9.40;;;;;;5084001;28;20407;-83
2022/11/17 18:40:23;;;;;;;5.47;1.37;;;10.00;8.90;;;;;;5089630;28;20470;-82
2022/11/17 18:42:49;;;;;;;4.07;1.30;;;9.90;10.00;;;;;;5081273;28;20425;-81
2022/11/17 18:45:37;;;;;;;4.43;1.10;;;9.90;8.70;;;;;;5091553;28;20183;-79
2022/11/17 18:48:04;;;;;;;2.73;0.80;;;9.70;7.70;;;;;;5095048;28;20189;-80